sensor_id;sensor_type;location;lat;lon;timestamp;pressure;altitude;pressure_sealevel;temperature;humidity
4858;BME280;58975;51.978;8.472;2023-05-23T00:00:18;100393.00;;;13.21;100.00
4858;BME280;58975;51.978;8.472;2023-05-23T00:05:15;100399.47;;;13.18;100.00
4858;BME280;58975;51.978;8.472;2023-05-23T00:10:14;100389.28;;;13.03;100.00
4858;BME280;58975;51.978;8.472;2023-05-23T00:15:10;100395.47;;;12.94;100.00
4858;BME280;58975;51.978;8.472;2023-05-23T00:20:07;100391.94;;;12.84;100.00
4858;BME280;58975;51.978;8.472;2023-05-23T00:25:06;100381.97;;;12.86;100.00
4858;BME280;58975;51.978;8.472;2023-05-23T00:30:03;100383.91;;;12.84;100.00
4858;BME280;58975;51.978;8.472;2023-05-23T00:35:00;100384.72;;;12.65;100.00
4858;BME280;58975;51.978;8.472;2023-05-23T00:39:56;100393.47;;;12.76;100.00
4858;BME280;58975;51.978;8.472;2023-05-23T00:44:53;100400.25;;;13.00;100.00
4858;BME280;58975;51.978;8.472;2023-05-23T00:49:49;100407.72;;;13.06;100.00
4858;BME280;58975;51.978;8.472;2023-05-23T00:54:46;100411.81;;;13.00;100.00
4858;BME280;58975;51.978;8.472;2023-05-23T00:59:44;100411.66;;;13.02;100.00
4858;BME280;58975;51.978;8.472;2023-05-23T01:04:42;100429.81;;;13.08;100.00
4858;BME280;58975;51.978;8.472;2023-05-23T01:09:39;100439.28;;;13.12;100.00
4858;BME280;58975;51.978;8.472;2023-05-23T01:14:43;100446.47;;;13.11;100.00
4858;BME280;58975;51.978;8.472;2023-05-23T01:25:06;100468.94;;;13.09;100.00
4858;BME280;58975;51.978;8.472;2023-05-23T01:30:09;100476.00;;;13.10;100.00
4858;BME280;58975;51.978;8.472;2023-05-23T01:35:07;100490.34;;;13.09;100.00
4858;BME280;58975;51.978;8.472;2023-05-23T01:40:05;100490.88;;;13.03;100.00
4858;BME280;58975;51.978;8.472;2023-05-23T01:45:01;100492.56;;;13.04;100.00
4858;BME280;58975;51.978;8.472;2023-05-23T01:49:58;100499.56;;;12.95;100.00
4858;BME280;58975;51.978;8.472;2023-05-23T01:54:55;100495.31;;;12.83;100.00
4858;BME280;58975;51.978;8.472;2023-05-23T01:59:52;100455.47;;;12.70;100.00
4858;BME280;58975;51.978;8.472;2023-05-23T02:04:49;100417.59;;;12.56;100.00
4858;BME280;58975;51.978;8.472;2023-05-23T02:09:45;100400.16;;;12.52;100.00
4858;BME280;58975;51.978;8.472;2023-05-23T02:14:42;100399.28;;;12.51;100.00
4858;BME280;58975;51.978;8.472;2023-05-23T02:19:38;100389.16;;;12.45;100.00
4858;BME280;58975;51.978;8.472;2023-05-23T02:24:35;100388.44;;;12.43;100.00
4858;BME280;58975;51.978;8.472;2023-05-23T02:29:32;100379.75;;;12.41;100.00
4858;BME280;58975;51.978;8.472;2023-05-23T02:34:28;100384.34;;;12.39;100.00
4858;BME280;58975;51.978;8.472;2023-05-23T02:39:26;100388.28;;;12.35;100.00
4858;BME280;58975;51.978;8.472;2023-05-23T02:44:22;100395.59;;;12.33;100.00
4858;BME280;58975;51.978;8.472;2023-05-23T02:49:18;100406.28;;;12.33;100.00
4858;BME280;58975;51.978;8.472;2023-05-23T02:54:15;100405.31;;;12.34;100.00
4858;BME280;58975;51.978;8.472;2023-05-23T02:59:12;100407.41;;;12.30;100.00
4858;BME280;58975;51.978;8.472;2023-05-23T03:04:09;100419.91;;;12.30;100.00
4858;BME280;58975;51.978;8.472;2023-05-23T03:09:05;100422.00;;;12.26;100.00
4858;BME280;58975;51.978;8.472;2023-05-23T03:14:03;100430.69;;;12.28;100.00
4858;BME280;58975;51.978;8.472;2023-05-23T03:19:00;100434.50;;;12.26;100.00
4858;BME280;58975;51.978;8.472;2023-05-23T03:23:56;100443.66;;;12.33;100.00
4858;BME280;58975;51.978;8.472;2023-05-23T03:28:53;100445.47;;;12.32;100.00
4858;BME280;58975;51.978;8.472;2023-05-23T03:33:50;100446.31;;;12.33;100.00
4858;BME280;58975;51.978;8.472;2023-05-23T03:38:46;100447.28;;;12.32;100.00
4858;BME280;58975;51.978;8.472;2023-05-23T03:43:43;100466.00;;;12.32;100.00
4858;BME280;58975;51.978;8.472;2023-05-23T03:48:40;100462.63;;;12.30;100.00
4858;BME280;58975;51.978;8.472;2023-05-23T03:53:37;100475.69;;;12.33;100.00
4858;BME280;58975;51.978;8.472;2023-05-23T03:58:33;100493.66;;;12.31;100.00
4858;BME280;58975;51.978;8.472;2023-05-23T04:03:30;100511.66;;;12.29;100.00
4858;BME280;58975;51.978;8.472;2023-05-23T04:08:30;100517.00;;;12.29;100.00
4858;BME280;58975;51.978;8.472;2023-05-23T04:13:29;100528.53;;;12.29;100.00
4858;BME280;58975;51.978;8.472;2023-05-23T04:18:26;100543.16;;;12.35;100.00
4858;BME280;58975;51.978;8.472;2023-05-23T04:23:24;100565.13;;;12.39;100.00
4858;BME280;58975;51.978;8.472;2023-05-23T04:28:20;100579.78;;;12.44;100.00
4858;BME280;58975;51.978;8.472;2023-05-23T04:33:17;100586.47;;;12.59;100.00
4858;BME280;58975;51.978;8.472;2023-05-23T04:38:13;100596.56;;;12.76;100.00
4858;BME280;58975;51.978;8.472;2023-05-23T04:43:10;100601.63;;;12.79;100.00
4858;BME280;58975;51.978;8.472;2023-05-23T04:48:09;100594.09;;;12.64;100.00
4858;BME280;58975;51.978;8.472;2023-05-23T04:53:08;100586.47;;;12.59;100.00
4858;BME280;58975;51.978;8.472;2023-05-23T04:58:05;100585.78;;;12.57;100.00
4858;BME280;58975;51.978;8.472;2023-05-23T05:03:01;100595.59;;;12.57;100.00
4858;BME280;58975;51.978;8.472;2023-05-23T05:07:58;100597.31;;;12.58;100.00
4858;BME280;58975;51.978;8.472;2023-05-23T05:12:54;100596.19;;;12.60;100.00
4858;BME280;58975;51.978;8.472;2023-05-23T05:17:51;100587.31;;;12.60;100.00
4858;BME280;58975;51.978;8.472;2023-05-23T05:22:54;100577.09;;;12.65;100.00
4858;BME280;58975;51.978;8.472;2023-05-23T05:27:52;100590.31;;;12.66;100.00
4858;BME280;58975;51.978;8.472;2023-05-23T05:32:49;100585.56;;;12.70;100.00
4858;BME280;58975;51.978;8.472;2023-05-23T05:37:46;100585.56;;;12.70;100.00
4858;BME280;58975;51.978;8.472;2023-05-23T05:42:43;100588.38;;;12.68;100.00
4858;BME280;58975;51.978;8.472;2023-05-23T05:47:39;100588.38;;;12.68;100.00
4858;BME280;58975;51.978;8.472;2023-05-23T05:52:37;100593.72;;;12.68;100.00
4858;BME280;58975;51.978;8.472;2023-05-23T05:57:35;100595.06;;;12.63;100.00
4858;BME280;58975;51.978;8.472;2023-05-23T06:02:33;100604.91;;;12.62;100.00
4858;BME280;58975;51.978;8.472;2023-05-23T06:07:30;100608.00;;;12.58;100.00
4858;BME280;58975;51.978;8.472;2023-05-23T06:12:27;100613.72;;;12.53;100.00
4858;BME280;58975;51.978;8.472;2023-05-23T06:17:23;100615.09;;;12.48;100.00
4858;BME280;58975;51.978;8.472;2023-05-23T06:22:20;100602.72;;;12.26;100.00
4858;BME280;58975;51.978;8.472;2023-05-23T06:27:16;100614.88;;;12.19;100.00
4858;BME280;58975;51.978;8.472;2023-05-23T06:32:13;100616.44;;;12.21;100.00
4858;BME280;58975;51.978;8.472;2023-05-23T06:37:09;100617.78;;;12.16;100.00
4858;BME280;58975;51.978;8.472;2023-05-23T06:42:06;100617.56;;;12.19;100.00
4858;BME280;58975;51.978;8.472;2023-05-23T06:47:02;100594.94;;;12.02;100.00
4858;BME280;58975;51.978;8.472;2023-05-23T06:51:59;100611.06;;;12.01;100.00
4858;BME280;58975;51.978;8.472;2023-05-23T06:56:56;100606.50;;;11.92;100.00
4858;BME280;58975;51.978;8.472;2023-05-23T07:01:52;100613.06;;;11.88;100.00
4858;BME280;58975;51.978;8.472;2023-05-23T07:06:48;100614.09;;;11.75;100.00
4858;BME280;58975;51.978;8.472;2023-05-23T07:11:45;100629.56;;;11.70;100.00
4858;BME280;58975;51.978;8.472;2023-05-23T07:16:42;100638.44;;;11.71;100.00
4858;BME280;58975;51.978;8.472;2023-05-23T07:21:38;100640.75;;;11.53;100.00
4858;BME280;58975;51.978;8.472;2023-05-23T07:26:35;100657.75;;;11.52;100.00
4858;BME280;58975;51.978;8.472;2023-05-23T07:31:32;100643.94;;;11.47;100.00
4858;BME280;58975;51.978;8.472;2023-05-23T07:36:28;100653.75;;;11.47;100.00
4858;BME280;58975;51.978;8.472;2023-05-23T07:41:29;100657.38;;;11.46;100.00
4858;BME280;58975;51.978;8.472;2023-05-23T07:46:26;100652.28;;;11.43;100.00
4858;BME280;58975;51.978;8.472;2023-05-23T07:51:22;100666.47;;;11.54;100.00
4858;BME280;58975;51.978;8.472;2023-05-23T07:56:19;100665.75;;;11.52;100.00
4858;BME280;58975;51.978;8.472;2023-05-23T08:01:16;100666.72;;;11.51;100.00
4858;BME280;58975;51.978;8.472;2023-05-23T08:06:13;100660.88;;;11.46;100.00
4858;BME280;58975;51.978;8.472;2023-05-23T08:11:10;100659.44;;;11.42;100.00
4858;BME280;58975;51.978;8.472;2023-05-23T08:16:06;100651.56;;;11.41;100.00
4858;BME280;58975;51.978;8.472;2023-05-23T08:21:03;100646.84;;;11.44;100.00
4858;BME280;58975;51.978;8.472;2023-05-23T08:25:59;100655.91;;;11.53;100.00
4858;BME280;58975;51.978;8.472;2023-05-23T08:30:56;100669.13;;;11.54;100.00
4858;BME280;58975;51.978;8.472;2023-05-23T08:35:53;100676.41;;;11.52;100.00
4858;BME280;58975;51.978;8.472;2023-05-23T08:40:50;100675.19;;;11.45;100.00
4858;BME280;58975;51.978;8.472;2023-05-23T08:45:50;100674.22;;;11.46;100.00
4858;BME280;58975;51.978;8.472;2023-05-23T08:50:49;100671.91;;;11.42;100.00
4858;BME280;58975;51.978;8.472;2023-05-23T08:55:46;100673.50;;;11.44;100.00
4858;BME280;58975;51.978;8.472;2023-05-23T09:00:44;100684.41;;;11.41;100.00
4858;BME280;58975;51.978;8.472;2023-05-23T09:05:41;100671.31;;;11.27;100.00
4858;BME280;58975;51.978;8.472;2023-05-23T09:10:38;100678.22;;;11.52;100.00
4858;BME280;58975;51.978;8.472;2023-05-23T09:15:35;100690.72;;;11.51;100.00
4858;BME280;58975;51.978;8.472;2023-05-23T09:20:32;100697.28;;;11.36;100.00
4858;BME280;58975;51.978;8.472;2023-05-23T09:25:29;100708.41;;;11.19;100.00
4858;BME280;58975;51.978;8.472;2023-05-23T09:30:26;100696.50;;;11.01;100.00
4858;BME280;58975;51.978;8.472;2023-05-23T09:35:22;100712.97;;;10.95;100.00
4858;BME280;58975;51.978;8.472;2023-05-23T09:40:19;100721.53;;;10.87;100.00
4858;BME280;58975;51.978;8.472;2023-05-23T09:45:15;100730.63;;;10.84;100.00
4858;BME280;58975;51.978;8.472;2023-05-23T09:50:12;100741.56;;;10.93;100.00
4858;BME280;58975;51.978;8.472;2023-05-23T09:55:09;100752.66;;;10.86;100.00
4858;BME280;58975;51.978;8.472;2023-05-23T10:00:06;100755.25;;;10.64;100.00
4858;BME280;58975;51.978;8.472;2023-05-23T10:05:12;100757.13;;;10.51;100.00
4858;BME280;58975;51.978;8.472;2023-05-23T10:10:11;100769.06;;;10.58;100.00
4858;BME280;58975;51.978;8.472;2023-05-23T10:15:10;100772.63;;;10.46;100.00
4858;BME280;58975;51.978;8.472;2023-05-23T10:20:14;100776.91;;;10.60;100.00
4858;BME280;58975;51.978;8.472;2023-05-23T10:25:11;100770.28;;;10.65;100.00
4858;BME280;58975;51.978;8.472;2023-05-23T10:30:09;100760.59;;;10.64;100.00
4858;BME280;58975;51.978;8.472;2023-05-23T10:35:37;100751.97;;;10.61;100.00
4858;BME280;58975;51.978;8.472;2023-05-23T10:41:05;100756.19;;;10.28;100.00
4858;BME280;58975;51.978;8.472;2023-05-23T10:46:07;100749.78;;;10.31;100.00
4858;BME280;58975;51.978;8.472;2023-05-23T10:51:11;100739.50;;;10.61;100.00
4858;BME280;58975;51.978;8.472;2023-05-23T10:56:18;100736.69;;;10.86;100.00
4858;BME280;58975;51.978;8.472;2023-05-23T11:01:17;100716.72;;;11.03;100.00
4858;BME280;58975;51.978;8.472;2023-05-23T11:11:23;100728.41;;;11.35;100.00
4858;BME280;58975;51.978;8.472;2023-05-23T11:16:28;100734.84;;;11.55;100.00
4858;BME280;58975;51.978;8.472;2023-05-23T11:21:25;100721.75;;;11.85;100.00
4858;BME280;58975;51.978;8.472;2023-05-23T11:26:28;100730.25;;;11.91;100.00
4858;BME280;58975;51.978;8.472;2023-05-23T11:31:25;100732.91;;;12.33;100.00
4858;BME280;58975;51.978;8.472;2023-05-23T11:36:22;100738.47;;;12.73;100.00
4858;BME280;58975;51.978;8.472;2023-05-23T11:41:18;100734.44;;;12.47;100.00
4858;BME280;58975;51.978;8.472;2023-05-23T11:46:15;100740.16;;;12.00;100.00
4858;BME280;58975;51.978;8.472;2023-05-23T11:51:12;100751.78;;;12.10;100.00
4858;BME280;58975;51.978;8.472;2023-05-23T11:56:09;100755.19;;;12.23;100.00
4858;BME280;58975;51.978;8.472;2023-05-23T12:01:11;100758.31;;;12.60;100.00
4858;BME280;58975;51.978;8.472;2023-05-23T12:06:09;100747.34;;;12.42;100.00
4858;BME280;58975;51.978;8.472;2023-05-23T12:11:08;100754.84;;;13.42;100.00
4858;BME280;58975;51.978;8.472;2023-05-23T12:16:05;100769.34;;;13.40;100.00
4858;BME280;58975;51.978;8.472;2023-05-23T12:21:03;100779.63;;;12.71;100.00
4858;BME280;58975;51.978;8.472;2023-05-23T12:26:05;100781.28;;;12.51;100.00
4858;BME280;58975;51.978;8.472;2023-05-23T12:31:15;100778.78;;;12.70;100.00
4858;BME280;58975;51.978;8.472;2023-05-23T12:36:13;100770.16;;;12.99;100.00
4858;BME280;58975;51.978;8.472;2023-05-23T12:41:14;100779.09;;;13.09;100.00
4858;BME280;58975;51.978;8.472;2023-05-23T12:46:11;100776.69;;;13.78;100.00
4858;BME280;58975;51.978;8.472;2023-05-23T12:51:08;100763.91;;;14.31;100.00
4858;BME280;58975;51.978;8.472;2023-05-23T12:56:04;100768.53;;;14.19;100.00
4858;BME280;58975;51.978;8.472;2023-05-23T13:01:01;100777.25;;;13.81;100.00
4858;BME280;58975;51.978;8.472;2023-05-23T13:05:59;100788.88;;;13.91;100.00
4858;BME280;58975;51.978;8.472;2023-05-23T13:10:56;100774.78;;;13.59;100.00
4858;BME280;58975;51.978;8.472;2023-05-23T13:15:52;100790.59;;;13.41;100.00
4858;BME280;58975;51.978;8.472;2023-05-23T13:20:49;100785.69;;;14.07;100.00
4858;BME280;58975;51.978;8.472;2023-05-23T13:25:46;100778.84;;;14.33;100.00
4858;BME280;58975;51.978;8.472;2023-05-23T13:30:43;100776.94;;;14.05;100.00
4858;BME280;58975;51.978;8.472;2023-05-23T13:35:42;100792.63;;;14.19;100.00
4858;BME280;58975;51.978;8.472;2023-05-23T13:40:39;100801.47;;;14.59;100.00
4858;BME280;58975;51.978;8.472;2023-05-23T13:45:36;100796.56;;;13.75;100.00
4858;BME280;58975;51.978;8.472;2023-05-23T13:50:33;100799.59;;;14.01;100.00
4858;BME280;58975;51.978;8.472;2023-05-23T13:55:29;100812.75;;;13.53;100.00
4858;BME280;58975;51.978;8.472;2023-05-23T14:00:26;100793.88;;;13.75;100.00
4858;BME280;58975;51.978;8.472;2023-05-23T14:05:23;100793.66;;;13.88;100.00
4858;BME280;58975;51.978;8.472;2023-05-23T14:10:19;100798.00;;;13.89;100.00
4858;BME280;58975;51.978;8.472;2023-05-23T14:15:16;100787.69;;;13.84;100.00
4858;BME280;58975;51.978;8.472;2023-05-23T14:20:13;100797.19;;;13.98;100.00
4858;BME280;58975;51.978;8.472;2023-05-23T14:25:10;100792.72;;;14.48;100.00
4858;BME280;58975;51.978;8.472;2023-05-23T14:30:07;100801.19;;;14.62;100.00
4858;BME280;58975;51.978;8.472;2023-05-23T14:35:04;100796.81;;;15.00;100.00
4858;BME280;58975;51.978;8.472;2023-05-23T14:40:05;100800.31;;;14.43;100.00
4858;BME280;58975;51.978;8.472;2023-05-23T14:45:02;100810.53;;;14.18;100.00
4858;BME280;58975;51.978;8.472;2023-05-23T14:49:59;100809.25;;;13.83;100.00
4858;BME280;58975;51.978;8.472;2023-05-23T14:54:55;100812.28;;;13.68;100.00
4858;BME280;58975;51.978;8.472;2023-05-23T14:59:52;100817.34;;;13.41;100.00
4858;BME280;58975;51.978;8.472;2023-05-23T15:04:48;100818.47;;;13.39;100.00
4858;BME280;58975;51.978;8.472;2023-05-23T15:09:44;100817.09;;;13.23;100.00
4858;BME280;58975;51.978;8.472;2023-05-23T15:14:43;100825.50;;;13.19;100.00
4858;BME280;58975;51.978;8.472;2023-05-23T15:19:39;100819.31;;;13.39;100.00
4858;BME280;58975;51.978;8.472;2023-05-23T15:24:38;100826.16;;;13.32;100.00
4858;BME280;58975;51.978;8.472;2023-05-23T15:29:36;100832.72;;;13.49;100.00
4858;BME280;58975;51.978;8.472;2023-05-23T15:34:36;100829.47;;;13.45;100.00
4858;BME280;58975;51.978;8.472;2023-05-23T15:39:32;100825.41;;;14.02;100.00
4858;BME280;58975;51.978;8.472;2023-05-23T15:44:29;100816.84;;;13.78;100.00
4858;BME280;58975;51.978;8.472;2023-05-23T15:49:25;100830.59;;;13.43;100.00
4858;BME280;58975;51.978;8.472;2023-05-23T15:54:22;100825.56;;;13.49;100.00
4858;BME280;58975;51.978;8.472;2023-05-23T15:59:19;100813.38;;;13.87;94.77
4858;BME280;58975;51.978;8.472;2023-05-23T16:04:16;100827.41;;;13.28;99.37
4858;BME280;58975;51.978;8.472;2023-05-23T16:09:13;100822.97;;;13.06;100.00
4858;BME280;58975;51.978;8.472;2023-05-23T16:14:10;100827.09;;;13.72;100.00
4858;BME280;58975;51.978;8.472;2023-05-23T16:19:07;100816.28;;;14.14;100.00
4858;BME280;58975;51.978;8.472;2023-05-23T16:24:04;100820.06;;;14.02;100.00
4858;BME280;58975;51.978;8.472;2023-05-23T16:29:01;100809.91;;;14.55;88.67
4858;BME280;58975;51.978;8.472;2023-05-23T16:33:57;100812.78;;;15.01;89.51
4858;BME280;58975;51.978;8.472;2023-05-23T16:38:54;100824.34;;;14.83;82.86
4858;BME280;58975;51.978;8.472;2023-05-23T16:43:51;100819.38;;;15.26;81.45
4858;BME280;58975;51.978;8.472;2023-05-23T16:48:47;100820.38;;;15.25;74.20
4858;BME280;58975;51.978;8.472;2023-05-23T16:53:44;100815.88;;;16.19;72.04
4858;BME280;58975;51.978;8.472;2023-05-23T16:58:40;100808.13;;;14.65;74.71
4858;BME280;58975;51.978;8.472;2023-05-23T17:03:37;100824.72;;;13.28;92.71
4858;BME280;58975;51.978;8.472;2023-05-23T17:08:34;100828.25;;;12.97;100.00
4858;BME280;58975;51.978;8.472;2023-05-23T17:13:31;100821.25;;;14.78;95.15
4858;BME280;58975;51.978;8.472;2023-05-23T17:18:28;100810.25;;;19.05;65.04
4858;BME280;58975;51.978;8.472;2023-05-23T17:23:24;100811.00;;;18.15;62.63
4858;BME280;58975;51.978;8.472;2023-05-23T17:28:21;100826.06;;;16.70;66.10
4858;BME280;58975;51.978;8.472;2023-05-23T17:33:18;100833.88;;;13.77;78.31
4858;BME280;58975;51.978;8.472;2023-05-23T17:38:14;100842.69;;;12.73;98.04
4858;BME280;58975;51.978;8.472;2023-05-23T17:43:11;100856.50;;;12.78;100.00
4858;BME280;58975;51.978;8.472;2023-05-23T17:48:07;100838.13;;;15.65;80.11
4858;BME280;58975;51.978;8.472;2023-05-23T17:53:04;100831.91;;;16.11;71.00
4858;BME280;58975;51.978;8.472;2023-05-23T17:58:01;100841.44;;;15.01;71.03
4858;BME280;58975;51.978;8.472;2023-05-23T18:02:59;100847.47;;;14.25;73.87
4858;BME280;58975;51.978;8.472;2023-05-23T18:07:55;100842.38;;;14.52;78.05
4858;BME280;58975;51.978;8.472;2023-05-23T18:12:52;100847.03;;;14.19;78.95
4858;BME280;58975;51.978;8.472;2023-05-23T18:17:49;100857.13;;;13.14;87.43
4858;BME280;58975;51.978;8.472;2023-05-23T18:22:51;100865.72;;;12.43;100.00
4858;BME280;58975;51.978;8.472;2023-05-23T18:27:49;100860.28;;;12.76;100.00
4858;BME280;58975;51.978;8.472;2023-05-23T18:32:45;100863.78;;;12.88;100.00
4858;BME280;58975;51.978;8.472;2023-05-23T18:37:42;100874.19;;;12.91;100.00
4858;BME280;58975;51.978;8.472;2023-05-23T18:42:38;100868.75;;;12.16;100.00
4858;BME280;58975;51.978;8.472;2023-05-23T18:47:35;100879.94;;;12.21;100.00
4858;BME280;58975;51.978;8.472;2023-05-23T18:52:32;100893.75;;;11.93;100.00
4858;BME280;58975;51.978;8.472;2023-05-23T18:57:32;100900.78;;;11.71;100.00
4858;BME280;58975;51.978;8.472;2023-05-23T19:02:28;100902.44;;;11.37;100.00
4858;BME280;58975;51.978;8.472;2023-05-23T19:07:25;100914.34;;;10.86;100.00
4858;BME280;58975;51.978;8.472;2023-05-23T19:12:22;100930.75;;;10.56;100.00
4858;BME280;58975;51.978;8.472;2023-05-23T19:17:19;100935.91;;;10.34;100.00
4858;BME280;58975;51.978;8.472;2023-05-23T19:22:15;100944.22;;;10.17;100.00
4858;BME280;58975;51.978;8.472;2023-05-23T19:27:12;100947.94;;;10.02;100.00
4858;BME280;58975;51.978;8.472;2023-05-23T19:32:10;100951.66;;;9.86;100.00
4858;BME280;58975;51.978;8.472;2023-05-23T19:37:06;100955.56;;;9.81;100.00
4858;BME280;58975;51.978;8.472;2023-05-23T19:42:03;100961.09;;;9.65;100.00
4858;BME280;58975;51.978;8.472;2023-05-23T19:46:59;100962.47;;;9.58;100.00
4858;BME280;58975;51.978;8.472;2023-05-23T19:51:56;100970.31;;;9.47;100.00
4858;BME280;58975;51.978;8.472;2023-05-23T19:56:52;100964.09;;;9.34;100.00
4858;BME280;58975;51.978;8.472;2023-05-23T20:01:49;100975.16;;;9.28;100.00
4858;BME280;58975;51.978;8.472;2023-05-23T20:06:46;100983.84;;;9.17;100.00
4858;BME280;58975;51.978;8.472;2023-05-23T20:11:43;100983.78;;;9.05;100.00
4858;BME280;58975;51.978;8.472;2023-05-23T20:16:39;100988.44;;;8.87;100.00
4858;BME280;58975;51.978;8.472;2023-05-23T20:21:36;100994.06;;;8.82;100.00
4858;BME280;58975;51.978;8.472;2023-05-23T20:26:33;100995.97;;;8.80;100.00
4858;BME280;58975;51.978;8.472;2023-05-23T20:31:29;100996.00;;;8.66;100.00
4858;BME280;58975;51.978;8.472;2023-05-23T20:36:26;101006.06;;;8.61;100.00
4858;BME280;58975;51.978;8.472;2023-05-23T20:41:22;101012.31;;;8.60;100.00
4858;BME280;58975;51.978;8.472;2023-05-23T20:46:19;101011.72;;;8.55;100.00
4858;BME280;58975;51.978;8.472;2023-05-23T20:51:16;101017.78;;;8.43;100.00
4858;BME280;58975;51.978;8.472;2023-05-23T20:56:13;101026.44;;;8.32;100.00
4858;BME280;58975;51.978;8.472;2023-05-23T21:01:09;101029.50;;;8.25;100.00
4858;BME280;58975;51.978;8.472;2023-05-23T21:06:06;101025.81;;;8.13;100.00
4858;BME280;58975;51.978;8.472;2023-05-23T21:11:02;101039.53;;;8.05;100.00
4858;BME280;58975;51.978;8.472;2023-05-23T21:15:59;101033.47;;;8.03;100.00
4858;BME280;58975;51.978;8.472;2023-05-23T21:20:55;101037.41;;;7.96;100.00
4858;BME280;58975;51.978;8.472;2023-05-23T21:25:52;101046.03;;;7.86;100.00
4858;BME280;58975;51.978;8.472;2023-05-23T21:30:48;101039.72;;;7.73;100.00
4858;BME280;58975;51.978;8.472;2023-05-23T21:35:45;101029.25;;;7.55;100.00
4858;BME280;58975;51.978;8.472;2023-05-23T21:40:41;101032.44;;;7.46;100.00
4858;BME280;58975;51.978;8.472;2023-05-23T21:45:38;101031.84;;;7.41;100.00
4858;BME280;58975;51.978;8.472;2023-05-23T21:50:35;101015.63;;;7.32;100.00
4858;BME280;58975;51.978;8.472;2023-05-23T21:55:31;101017.00;;;7.23;100.00
4858;BME280;58975;51.978;8.472;2023-05-23T22:00:28;101013.94;;;7.15;100.00
4858;BME280;58975;51.978;8.472;2023-05-23T22:05:24;101014.44;;;7.06;100.00
4858;BME280;58975;51.978;8.472;2023-05-23T22:10:21;101013.75;;;7.02;100.00
4858;BME280;58975;51.978;8.472;2023-05-23T22:15:18;101017.88;;;6.92;100.00
4858;BME280;58975;51.978;8.472;2023-05-23T22:20:14;101023.34;;;6.89;100.00
4858;BME280;58975;51.978;8.472;2023-05-23T22:25:11;101013.09;;;6.83;100.00
4858;BME280;58975;51.978;8.472;2023-05-23T22:30:08;101016.84;;;6.79;100.00
4858;BME280;58975;51.978;8.472;2023-05-23T22:35:05;101010.09;;;6.74;100.00
4858;BME280;58975;51.978;8.472;2023-05-23T22:40:02;101011.28;;;6.68;100.00
4858;BME280;58975;51.978;8.472;2023-05-23T22:44:59;101014.28;;;6.62;100.00
4858;BME280;58975;51.978;8.472;2023-05-23T22:49:56;101025.19;;;6.56;100.00
4858;BME280;58975;51.978;8.472;2023-05-23T22:54:54;101021.34;;;6.46;100.00
4858;BME280;58975;51.978;8.472;2023-05-23T22:59:51;101028.13;;;6.34;100.00
4858;BME280;58975;51.978;8.472;2023-05-23T23:04:47;101020.50;;;6.28;100.00
4858;BME280;58975;51.978;8.472;2023-05-23T23:09:43;101022.88;;;6.17;100.00
4858;BME280;58975;51.978;8.472;2023-05-23T23:14:40;101028.56;;;6.09;100.00
4858;BME280;58975;51.978;8.472;2023-05-23T23:19:37;101021.94;;;6.01;100.00
4858;BME280;58975;51.978;8.472;2023-05-23T23:24:34;101030.72;;;5.84;100.00
4858;BME280;58975;51.978;8.472;2023-05-23T23:29:30;101032.34;;;5.69;100.00
4858;BME280;58975;51.978;8.472;2023-05-23T23:34:27;101035.53;;;5.59;100.00
4858;BME280;58975;51.978;8.472;2023-05-23T23:39:24;101026.34;;;5.32;100.00
4858;BME280;58975;51.978;8.472;2023-05-23T23:44:21;101023.28;;;5.22;100.00
4858;BME280;58975;51.978;8.472;2023-05-23T23:49:17;101029.25;;;5.25;100.00
4858;BME280;58975;51.978;8.472;2023-05-23T23:54:14;101028.09;;;5.31;100.00
4858;BME280;58975;51.978;8.472;2023-05-23T23:59:11;101035.00;;;5.34;100.00
